Time;durP1;ratioP1;P1;durP2;ratioP2;P2;SDS_P1;SDS_P2;PMS_P1;PMS_P2;Temp;Humidity;BMP_temperature;BMP_pressure;BME280_temperature;BME280_humidity;BME280_pressure;Samples;Min_cycle;Max_cycle;Signal;HPM_P1;HPM_P2
2023/10/29 00:02:18;;;;;;;25.40;22.90;;;;;;;7.80;100.00;97076.93;109888;1284;22206;-87
2023/10/29 00:04:46;;;;;;;30.90;27.80;;;;;;;7.79;100.00;97072.55;109907;1284;22207;-87
2023/10/29 00:07:14;;;;;;;26.60;23.80;;;;;;;7.81;100.00;97072.05;109910;1285;22123;-83
2023/10/29 00:09:43;;;;;;;25.70;23.20;;;;;;;7.85;100.00;97073.65;109865;1285;22755;-87
2023/10/29 00:12:11;;;;;;;26.00;23.50;;;;;;;7.92;100.00;97075.92;109877;1285;22226;-87
2023/10/29 00:14:39;;;;;;;24.60;21.60;;;;;;;7.96;100.00;97077.11;109849;1277;22134;-87
2023/10/29 00:17:08;;;;;;;24.10;20.20;;;;;;;8.00;100.00;97074.77;109897;1285;22222;-90
2023/10/29 00:19:37;;;;;;;23.10;20.60;;;;;;;8.08;100.00;97071.74;109898;1284;22263;-88
2023/10/29 00:22:05;;;;;;;27.70;20.90;;;;;;;8.19;100.00;97066.41;109880;1285;22221;-88
2023/10/29 00:24:33;;;;;;;25.40;22.70;;;;;;;8.29;100.00;97065.31;109810;1280;22238;-87
2023/10/29 00:27:02;;;;;;;24.50;22.00;;;;;;;8.38;100.00;97066.48;109957;1282;22356;-87
2023/10/29 00:29:30;;;;;;;23.00;20.70;;;;;;;8.41;100.00;97071.35;109971;1270;22279;-89
2023/10/29 00:31:58;;;;;;;18.70;16.70;;;;;;;8.38;100.00;97076.46;109882;1284;22972;-87
2023/10/29 00:34:27;;;;;;;17.40;14.20;;;;;;;8.34;100.00;97084.48;109844;1279;22191;-86
2023/10/29 00:36:55;;;;;;;16.10;14.30;;;;;;;8.30;100.00;97084.99;109931;1284;22156;-85
2023/10/29 00:39:24;;;;;;;15.70;12.90;;;;;;;8.27;100.00;97084.06;109851;1284;23081;-86
2023/10/29 00:41:52;;;;;;;17.70;14.80;;;;;;;8.27;100.00;97086.31;109830;1277;22220;-86
2023/10/29 00:44:21;;;;;;;23.50;21.20;;;;;;;8.27;100.00;97087.75;109882;1285;22848;-87
2023/10/29 00:46:49;;;;;;;27.30;24.90;;;;;;;8.23;100.00;97077.27;109769;1284;22380;-89
2023/10/29 00:49:17;;;;;;;20.80;18.70;;;;;;;8.24;100.00;97076.84;109773;1280;22215;-87
2023/10/29 00:51:46;;;;;;;15.60;14.00;;;;;;;8.26;100.00;97077.11;109797;1285;22197;-88
2023/10/29 00:54:14;;;;;;;18.10;14.70;;;;;;;8.32;100.00;97077.43;109864;1285;22356;-88
2023/10/29 00:56:43;;;;;;;14.20;12.60;;;;;;;8.34;100.00;97074.77;109872;1277;22512;-87
2023/10/29 00:59:12;;;;;;;15.80;12.30;;;;;;;8.40;100.00;97073.19;109751;1286;22099;-87
2023/10/29 01:01:40;;;;;;;13.90;12.30;;;;;;;8.46;100.00;97076.45;109874;1277;22788;-88
2023/10/29 01:04:08;;;;;;;17.70;15.90;;;;;;;8.44;100.00;97078.10;109814;1285;22567;-87
2023/10/29 01:06:38;;;;;;;18.30;16.50;;;;;;;8.39;100.00;97080.52;109885;1285;22392;-87
2023/10/29 01:09:10;;;;;;;16.20;11.60;;;;;;;8.29;100.00;97076.43;109888;1284;22119;-88
2023/10/29 01:11:38;;;;;;;13.80;11.40;;;;;;;8.29;100.00;97082.15;109775;1285;22966;-87
2023/10/29 01:14:06;;;;;;;12.40;10.20;;;;;;;8.27;100.00;97078.25;109843;1285;22206;-88
2023/10/29 01:16:34;;;;;;;13.90;12.10;;;;;;;8.32;100.00;97075.34;109775;1280;22228;-88
2023/10/29 01:19:02;;;;;;;16.10;13.50;;;;;;;8.42;100.00;97077.55;109876;1284;22254;-88
2023/10/29 01:21:30;;;;;;;15.00;13.20;;;;;;;8.47;100.00;97078.00;109874;1284;22259;-88
2023/10/29 01:24:02;;;;;;;23.20;20.90;;;;;;;8.47;100.00;97080.61;109895;1281;22214;-87
2023/10/29 01:26:31;;;;;;;16.40;14.10;;;;;;;8.42;100.00;97079.71;109882;1277;22899;-89
2023/10/29 01:28:59;;;;;;;15.30;13.70;;;;;;;8.40;100.00;97075.19;109887;1278;22420;-87
2023/10/29 01:31:28;;;;;;;15.50;13.40;;;;;;;8.46;100.00;97071.13;109784;1277;23107;-89
2023/10/29 01:33:56;;;;;;;15.10;11.60;;;;;;;8.49;100.00;97076.55;109939;1281;22234;-91
2023/10/29 01:36:24;;;;;;;14.10;11.40;;;;;;;8.45;100.00;97078.36;109921;1284;22207;-90
2023/10/29 01:38:54;;;;;;;26.80;11.50;;;;;;;8.42;100.00;97075.36;109929;1277;22318;-89
2023/10/29 01:41:24;;;;;;;13.40;11.50;;;;;;;8.42;100.00;97073.36;109881;1277;22235;-89
2023/10/29 01:43:52;;;;;;;15.20;11.20;;;;;;;8.52;100.00;97072.19;109877;1277;22211;-90
2023/10/29 01:46:20;;;;;;;12.10;10.30;;;;;;;8.60;100.00;97079.61;109891;1285;22198;-92
2023/10/29 01:48:48;;;;;;;16.20;10.90;;;;;;;8.70;100.00;97079.10;109767;1284;22955;-91
2023/10/29 01:51:16;;;;;;;12.00;9.90;;;;;;;8.80;100.00;97083.52;109870;1283;22703;-89
2023/10/29 01:53:44;;;;;;;13.10;11.60;;;;;;;8.86;100.00;97080.99;109873;1273;22301;-90
2023/10/29 01:56:12;;;;;;;14.80;10.40;;;;;;;8.92;100.00;97080.33;109889;1284;22193;-90
2023/10/29 01:58:40;;;;;;;12.30;9.40;;;;;;;8.92;100.00;97082.14;109815;1274;22193;-91
2023/10/29 02:01:11;;;;;;;11.40;8.70;;;;;;;8.97;100.00;97082.14;109821;1285;22851;-89
2023/10/29 02:03:39;;;;;;;11.50;10.20;;;;;;;9.04;100.00;97076.42;109761;1284;22197;-91
2023/10/29 02:06:16;;;;;;;10.80;9.70;;;;;;;9.11;100.00;97078.77;109897;1270;22206;-91
2023/10/29 02:08:44;;;;;;;9.30;7.70;;;;;;;9.17;100.00;97072.52;109850;1273;23103;-91
2023/10/29 02:11:12;;;;;;;13.70;11.50;;;;;;;9.21;100.00;97065.75;109903;1271;22331;-91
2023/10/29 02:13:40;;;;;;;13.50;12.00;;;;;;;9.23;100.00;97066.83;109890;1284;22327;-90
2023/10/29 02:16:09;;;;;;;12.60;10.00;;;;;;;9.26;100.00;97065.14;109820;1280;23082;-91
2023/10/29 02:18:37;;;;;;;14.40;12.30;;;;;;;9.31;100.00;97066.14;109877;1273;22285;-90
2023/10/29 02:21:05;;;;;;;10.40;8.70;;;;;;;9.33;100.00;97063.23;109897;1273;23061;-92
2023/10/29 02:23:34;;;;;;;10.00;8.80;;;;;;;9.38;100.00;97065.91;109873;1270;22905;-91
2023/10/29 02:26:02;;;;;;;9.30;6.60;;;;;;;9.34;100.00;97068.84;109890;1284;23041;-90
2023/10/29 02:28:30;;;;;;;11.70;8.70;;;;;;;9.30;100.00;97071.55;109720;1284;23087;-88
2023/10/29 02:30:58;;;;;;;12.40;8.30;;;;;;;9.24;100.00;97069.18;109876;1284;22257;-91
2023/10/29 02:33:26;;;;;;;10.80;8.10;;;;;;;9.18;100.00;97067.35;109798;1284;23382;-91
2023/10/29 02:35:55;;;;;;;10.20;7.40;;;;;;;9.13;100.00;97064.25;109890;1284;22122;-91
2023/10/29 02:38:23;;;;;;;16.30;14.60;;;;;;;9.10;100.00;97062.38;109881;1285;22248;-89
2023/10/29 02:40:51;;;;;;;10.60;9.20;;;;;;;9.07;100.00;97053.86;109771;1284;22236;-89
2023/10/29 02:43:19;;;;;;;11.10;8.60;;;;;;;9.05;100.00;97056.33;109854;1277;22941;-91
2023/10/29 02:45:47;;;;;;;10.60;8.30;;;;;;;9.00;100.00;97057.33;109902;1284;22702;-90
2023/10/29 02:48:15;;;;;;;9.60;7.70;;;;;;;8.98;100.00;97056.56;109804;1284;22209;-90
2023/10/29 02:50:44;;;;;;;8.20;6.40;;;;;;;9.02;100.00;97057.22;109905;1284;22237;-90
2023/10/29 02:53:13;;;;;;;8.90;6.40;;;;;;;9.06;100.00;97060.56;109807;1284;22206;-91
2023/10/29 02:55:41;;;;;;;9.30;7.20;;;;;;;9.11;100.00;97065.79;109775;1286;23462;-89
2023/10/29 02:58:09;;;;;;;8.60;7.00;;;;;;;9.14;100.00;97065.23;109762;1283;22196;-89
2023/10/29 03:00:37;;;;;;;8.60;7.20;;;;;;;9.14;100.00;97064.70;109879;1273;23071;-89
2023/10/29 03:03:05;;;;;;;11.30;7.30;;;;;;;9.11;100.00;97068.64;109763;1274;22450;-90
2023/10/29 03:05:34;;;;;;;9.40;7.60;;;;;;;9.09;100.00;97071.39;109738;1285;22255;-92
2023/10/29 03:08:21;;;;;;;9.50;7.90;;;;;;;9.10;100.00;97076.56;109886;1284;22257;-90
2023/10/29 03:11:29;;;;;;;9.30;7.50;;;;;;;9.06;100.00;97080.34;109880;1285;22205;-91
2023/10/29 03:15:00;;;;;;;8.60;6.00;;;;;;;9.01;100.00;97084.96;109931;1283;22274;-88
2023/10/29 03:17:28;;;;;;;10.90;9.60;;;;;;;8.98;100.00;97083.83;109923;1283;23003;-92
2023/10/29 03:19:57;;;;;;;10.40;7.90;;;;;;;8.87;100.00;97086.19;109840;1284;22211;-90
2023/10/29 03:22:24;;;;;;;20.40;16.90;;;;;;;8.78;100.00;97085.56;109886;1283;22227;-90
2023/10/29 03:24:53;;;;;;;9.40;8.50;;;;;;;8.71;100.00;97085.05;109921;1277;22262;-90
2023/10/29 03:27:21;;;;;;;8.00;7.00;;;;;;;8.71;100.00;97086.76;109920;1283;23299;-91
2023/10/29 03:29:49;;;;;;;8.20;6.40;;;;;;;8.66;100.00;97087.69;109953;1283;22221;-91
2023/10/29 03:32:17;;;;;;;19.50;17.50;;;;;;;8.55;100.00;97086.71;109891;1284;22438;-91
2023/10/29 03:34:45;;;;;;;7.60;5.90;;;;;;;8.42;100.00;97086.84;109923;1284;22205;-90
2023/10/29 03:37:13;;;;;;;13.60;12.20;;;;;;;8.25;100.00;97089.13;109944;1278;22189;-90
2023/10/29 03:39:41;;;;;;;11.80;10.50;;;;;;;8.13;100.00;97088.08;109964;1284;22250;-89
2023/10/29 03:42:09;;;;;;;9.50;8.20;;;;;;;8.08;100.00;97091.34;109943;1284;22942;-90
2023/10/29 03:44:37;;;;;;;11.10;6.90;;;;;;;8.07;100.00;97097.80;109885;1284;23062;-89
2023/10/29 03:47:05;;;;;;;7.10;5.90;;;;;;;8.00;100.00;97096.98;109825;1278;23210;-88
2023/10/29 03:49:33;;;;;;;9.80;6.70;;;;;;;7.98;100.00;97098.10;109797;1284;23001;-88
2023/10/29 03:52:01;;;;;;;11.90;10.60;;;;;;;7.98;100.00;97091.89;109872;1278;22130;-90
2023/10/29 03:54:28;;;;;;;9.10;7.90;;;;;;;7.92;100.00;97095.64;109917;1278;22267;-89
2023/10/29 03:56:56;;;;;;;9.80;5.70;;;;;;;7.77;100.00;97090.02;109901;1270;22859;-88
2023/10/29 03:59:25;;;;;;;9.60;8.50;;;;;;;7.64;100.00;97086.52;109806;1285;22192;-90
2023/10/29 04:01:53;;;;;;;8.20;7.10;;;;;;;7.55;100.00;97083.55;109923;1284;22084;-89
2023/10/29 04:04:21;;;;;;;10.00;6.60;;;;;;;7.49;100.00;97084.15;109910;1284;22195;-90
2023/10/29 04:06:49;;;;;;;8.80;7.60;;;;;;;7.44;100.00;97083.80;109992;1284;22950;-89
2023/10/29 04:09:17;;;;;;;8.70;6.10;;;;;;;7.36;100.00;97087.17;110005;1281;22943;-87
2023/10/29 04:11:45;;;;;;;8.20;5.10;;;;;;;7.25;100.00;97093.42;110017;1284;22302;-90
2023/10/29 04:14:13;;;;;;;8.70;5.30;;;;;;;7.18;100.00;97088.86;109953;1284;22224;-91
2023/10/29 04:16:41;;;;;;;11.20;6.00;;;;;;;7.14;100.00;97094.13;109976;1283;22254;-91
2023/10/29 04:19:08;;;;;;;26.20;24.20;;;;;;;7.05;100.00;97090.01;110001;1283;22197;-89
2023/10/29 04:21:36;;;;;;;8.20;6.20;;;;;;;6.97;100.00;97087.68;109950;1283;22199;-88
2023/10/29 04:24:05;;;;;;;7.90;7.10;;;;;;;7.04;100.00;97090.70;109998;1283;22234;-90
2023/10/29 04:26:32;;;;;;;11.40;6.90;;;;;;;7.14;100.00;97089.51;109978;1283;22105;-91
2023/10/29 04:29:00;;;;;;;11.90;9.80;;;;;;;7.24;100.00;97083.70;109983;1283;22309;-91
2023/10/29 04:31:28;;;;;;;9.20;8.30;;;;;;;7.30;100.00;97083.96;109975;1283;22355;-92
2023/10/29 04:33:56;;;;;;;9.20;8.10;;;;;;;7.25;100.00;97081.05;109880;1277;22148;-89
2023/10/29 04:36:25;;;;;;;21.10;19.30;;;;;;;7.21;100.00;97077.11;109992;1268;22210;-88
2023/10/29 04:38:53;;;;;;;10.30;9.20;;;;;;;7.20;100.00;97074.88;109975;1283;22288;-90
2023/10/29 04:41:21;;;;;;;11.80;10.70;;;;;;;7.23;100.00;97078.30;109974;1283;22209;-88
2023/10/29 04:43:49;;;;;;;11.90;9.20;;;;;;;7.31;100.00;97075.74;110025;1276;23029;-89
2023/10/29 04:46:17;;;;;;;9.10;5.90;;;;;;;7.38;100.00;97070.58;109928;1283;22195;-87
2023/10/29 04:48:45;;;;;;;12.10;8.40;;;;;;;7.45;100.00;97069.41;109962;1283;22176;-90
2023/10/29 04:51:13;;;;;;;12.70;9.90;;;;;;;7.41;100.00;97071.31;109993;1283;23007;-89
2023/10/29 04:53:41;;;;;;;12.70;9.80;;;;;;;7.32;100.00;97073.00;109999;1283;22246;-90
2023/10/29 04:56:08;;;;;;;11.30;7.70;;;;;;;7.20;100.00;97076.75;109944;1284;22193;-90
2023/10/29 04:58:37;;;;;;;21.00;18.90;;;;;;;7.16;100.00;97078.71;109929;1280;22373;-88
2023/10/29 05:01:05;;;;;;;10.50;9.00;;;;;;;7.13;100.00;97078.88;109938;1282;23354;-91
2023/10/29 05:03:32;;;;;;;37.30;34.50;;;;;;;7.04;100.00;97080.33;109940;1269;22205;-91
2023/10/29 05:06:01;;;;;;;12.60;10.70;;;;;;;7.03;100.00;97081.79;109878;1275;22393;-91
2023/10/29 05:08:29;;;;;;;11.70;7.30;;;;;;;7.05;100.00;97086.36;109987;1268;22204;-90
2023/10/29 05:10:57;;;;;;;8.00;7.20;;;;;;;6.98;100.00;97085.67;109978;1275;22337;-91
2023/10/29 05:13:25;;;;;;;13.50;11.30;;;;;;;6.97;100.00;97084.94;109974;1283;22222;-89
2023/10/29 05:15:53;;;;;;;7.90;5.90;;;;;;;7.02;100.00;97084.36;109918;1284;22127;-91
2023/10/29 05:18:21;;;;;;;11.20;7.30;;;;;;;7.08;100.00;97080.10;109911;1280;22846;-91
2023/10/29 05:20:49;;;;;;;9.00;6.30;;;;;;;7.13;100.00;97077.48;109910;1284;22244;-90
2023/10/29 05:23:17;;;;;;;10.30;6.50;;;;;;;7.18;100.00;97079.27;109946;1284;22200;-90
2023/10/29 05:25:45;;;;;;;7.60;6.00;;;;;;;7.20;100.00;97073.38;109924;1277;22271;-92
2023/10/29 05:28:13;;;;;;;9.70;6.80;;;;;;;7.16;100.00;97077.42;109939;1284;22306;-89
2023/10/29 05:30:41;;;;;;;36.10;33.20;;;;;;;7.10;100.00;97083.05;109953;1284;22142;-91
2023/10/29 05:33:09;;;;;;;11.40;8.70;;;;;;;7.12;100.00;97087.14;109869;1279;23470;-90
2023/10/29 05:35:39;;;;;;;18.30;16.60;;;;;;;7.17;100.00;97088.39;109969;1284;22388;-91
2023/10/29 05:38:07;;;;;;;11.40;10.10;;;;;;;7.18;100.00;97093.84;109937;1284;22215;-90
2023/10/29 05:40:35;;;;;;;8.90;7.50;;;;;;;7.17;100.00;97100.38;109953;1284;22230;-90
2023/10/29 05:43:03;;;;;;;6.50;5.50;;;;;;;7.14;100.00;97103.02;109901;1280;22285;-89
2023/10/29 05:45:32;;;;;;;7.50;6.70;;;;;;;7.05;100.00;97109.33;109908;1269;22272;-89
2023/10/29 05:48:00;;;;;;;8.90;6.30;;;;;;;6.99;100.00;97113.63;109945;1274;22225;-90
2023/10/29 05:50:28;;;;;;;7.60;6.10;;;;;;;6.97;100.00;97115.05;109910;1284;22226;-90
2023/10/29 05:52:56;;;;;;;14.20;12.90;;;;;;;6.95;100.00;97113.42;109928;1284;24396;-90
2023/10/29 05:55:24;;;;;;;15.70;14.40;;;;;;;6.97;100.00;97113.92;109918;1284;22139;-90
2023/10/29 05:57:52;;;;;;;35.90;32.60;;;;;;;6.98;100.00;97116.73;110036;1284;22290;-89
2023/10/29 06:00:20;;;;;;;34.30;31.80;;;;;;;7.00;100.00;97120.67;110038;1284;22257;-90
2023/10/29 06:02:48;;;;;;;16.70;15.20;;;;;;;7.12;100.00;97126.91;109981;1271;22164;-92
2023/10/29 06:05:16;;;;;;;8.90;7.50;;;;;;;7.24;100.00;97131.77;109914;1284;22179;-90
2023/10/29 06:07:44;;;;;;;11.30;9.20;;;;;;;7.35;100.00;97135.86;109945;1284;22139;-91
2023/10/29 06:10:15;;;;;;;12.40;11.20;;;;;;;7.42;100.00;97135.04;109929;1284;22294;-90
2023/10/29 06:12:43;;;;;;;13.10;11.90;;;;;;;7.52;100.00;97138.93;109917;1284;22413;-90
2023/10/29 06:15:51;;;;;;;10.80;8.90;;;;;;;7.59;100.00;97142.33;109804;1284;22341;-92
2023/10/29 06:20:22;;;;;;;9.00;7.10;;;;;;;7.63;100.00;97157.70;109735;1288;22229;-90
2023/10/29 06:24:49;;;;;;;27.90;25.40;;;;;;;7.73;100.00;97155.15;109517;1284;23152;-91
2023/10/29 06:28:11;;;;;;;30.30;27.10;;;;;;;7.98;100.00;97159.27;109768;1280;22686;-91
2023/10/29 06:30:39;;;;;;;17.50;15.80;;;;;;;8.10;100.00;97152.78;109817;1279;22332;-92
2023/10/29 06:33:07;;;;;;;11.60;10.50;;;;;;;8.27;100.00;97160.66;109788;1286;23019;-91
2023/10/29 06:35:35;;;;;;;8.40;6.70;;;;;;;8.38;100.00;97152.95;109773;1287;23181;-91
2023/10/29 06:38:03;;;;;;;7.60;5.50;;;;;;;8.53;100.00;97153.02;109778;1287;23007;-92
2023/10/29 06:40:31;;;;;;;7.80;5.60;;;;;;;8.69;100.00;97155.23;109707;1287;22335;-91
2023/10/29 06:42:59;;;;;;;7.20;5.10;;;;;;;8.87;100.00;97159.86;109807;1285;22246;-92
2023/10/29 06:45:27;;;;;;;9.50;7.20;;;;;;;9.06;100.00;97158.75;109787;1280;22177;-89
2023/10/29 06:47:54;;;;;;;7.10;5.10;;;;;;;9.23;100.00;97160.43;109788;1286;22398;-92
2023/10/29 06:50:23;;;;;;;6.40;5.20;;;;;;;9.38;100.00;97155.26;109676;1287;22116;-90
2023/10/29 06:52:51;;;;;;;6.90;4.30;;;;;;;9.52;100.00;97153.65;109778;1286;22211;-92
2023/10/29 06:55:21;;;;;;;5.30;4.00;;;;;;;9.64;100.00;97157.26;109746;1274;23070;-92
2023/10/29 06:57:49;;;;;;;5.40;4.20;;;;;;;9.80;100.00;97162.61;109696;1287;22238;-91
2023/10/29 07:00:17;;;;;;;6.80;4.30;;;;;;;9.98;100.00;97156.07;109742;1277;22391;-91
2023/10/29 07:02:47;;;;;;;7.30;4.60;;;;;;;10.14;100.00;97146.61;109760;1287;22209;-93
2023/10/29 07:05:15;;;;;;;9.90;7.00;;;;;;;10.28;100.00;97146.81;109720;1281;22292;-93
2023/10/29 07:07:43;;;;;;;7.80;5.10;;;;;;;10.42;100.00;97149.02;109721;1288;22217;-91
2023/10/29 07:10:10;;;;;;;6.90;4.40;;;;;;;10.55;100.00;97149.04;109733;1276;22389;-93
2023/10/29 07:12:39;;;;;;;5.70;4.40;;;;;;;10.64;100.00;97144.97;109716;1287;22212;-91
2023/10/29 07:15:10;;;;;;;6.20;4.50;;;;;;;10.75;100.00;97143.29;109755;1287;23084;-92
2023/10/29 07:17:38;;;;;;;6.80;3.60;;;;;;;10.88;100.00;97142.66;109681;1286;22243;-93
2023/10/29 07:20:08;;;;;;;6.90;4.20;;;;;;;11.00;100.00;97143.84;109774;1287;22470;-93
2023/10/29 07:22:36;;;;;;;7.60;4.00;;;;;;;11.10;100.00;97149.85;109780;1276;23228;-94
2023/10/29 07:25:04;;;;;;;6.50;3.90;;;;;;;11.20;100.00;97145.55;109736;1287;22358;-91
2023/10/29 07:27:32;;;;;;;6.40;3.50;;;;;;;11.28;100.00;97144.35;109711;1287;22478;-90
2023/10/29 07:30:02;;;;;;;6.90;4.30;;;;;;;11.36;100.00;97147.38;109611;1286;22299;-89
2023/10/29 07:32:30;;;;;;;8.50;4.40;;;;;;;11.38;100.00;97140.67;109698;1287;22297;-90
2023/10/29 07:34:59;;;;;;;7.90;4.40;;;;;;;11.48;100.00;97148.04;109711;1286;22231;-90
2023/10/29 07:37:27;;;;;;;5.40;3.50;;;;;;;11.59;100.00;97141.23;109755;1286;22230;-87
2023/10/29 07:39:54;;;;;;;5.20;3.80;;;;;;;11.72;100.00;97138.27;109717;1288;22183;-88
2023/10/29 07:42:24;;;;;;;6.60;4.10;;;;;;;11.77;100.00;97137.26;109710;1288;22122;-85
2023/10/29 07:44:53;;;;;;;4.70;3.50;;;;;;;11.80;100.00;97134.83;109742;1287;22832;-87
2023/10/29 07:47:21;;;;;;;6.30;4.20;;;;;;;11.86;100.00;97126.95;109836;1288;22296;-89
2023/10/29 07:49:49;;;;;;;6.00;4.20;;;;;;;11.93;100.00;97124.15;109828;1287;22185;-89
2023/10/29 07:52:17;;;;;;;6.40;3.70;;;;;;;11.98;100.00;97129.91;109884;1287;22289;-87
2023/10/29 07:55:12;;;;;;;6.60;4.60;;;;;;;12.02;100.00;97130.08;109708;1287;22239;-90
2023/10/29 07:57:40;;;;;;;5.70;4.00;;;;;;;12.17;100.00;97121.09;109744;1280;22211;-91
2023/10/29 08:00:13;;;;;;;7.40;4.10;;;;;;;12.28;100.00;97125.85;109750;1276;22195;-91
2023/10/29 08:02:42;;;;;;;6.60;3.90;;;;;;;12.39;100.00;97131.46;109705;1287;22332;-89
2023/10/29 08:05:11;;;;;;;6.30;4.30;;;;;;;12.46;100.00;97126.67;109723;1277;22118;-89
2023/10/29 08:07:39;;;;;;;7.90;4.90;;;;;;;12.54;100.00;97124.45;109753;1286;22301;-88
2023/10/29 08:10:08;;;;;;;6.90;4.20;;;;;;;12.60;100.00;97122.05;109817;1287;22155;-87
2023/10/29 08:12:36;;;;;;;5.40;4.00;;;;;;;12.66;100.00;97119.33;109816;1285;22506;-87
2023/10/29 08:15:04;;;;;;;7.10;3.70;;;;;;;12.71;100.00;97119.39;109810;1280;22242;-87
2023/10/29 08:17:33;;;;;;;6.80;3.40;;;;;;;12.79;100.00;97117.79;109722;1276;23158;-88
2023/10/29 08:20:02;;;;;;;6.80;4.20;;;;;;;12.89;100.00;97120.31;109732;1287;22439;-85
2023/10/29 08:22:30;;;;;;;6.10;4.60;;;;;;;12.97;100.00;97122.61;109769;1280;23090;-88
2023/10/29 08:24:59;;;;;;;8.90;4.80;;;;;;;13.01;100.00;97119.59;109687;1288;22201;-86
2023/10/29 08:27:27;;;;;;;6.30;4.70;;;;;;;13.08;100.00;97125.52;109782;1280;22213;-89
2023/10/29 08:29:56;;;;;;;6.20;4.50;;;;;;;13.13;99.97;97123.88;109756;1286;22181;-90
2023/10/29 08:32:24;;;;;;;6.50;5.00;;;;;;;13.19;100.00;97117.16;109766;1286;22706;-89
2023/10/29 08:34:52;;;;;;;7.20;5.30;;;;;;;13.26;100.00;97126.01;109774;1285;22221;-90
2023/10/29 08:37:20;;;;;;;7.70;5.00;;;;;;;13.31;99.97;97127.89;109775;1283;22918;-92
2023/10/29 08:39:49;;;;;;;7.50;4.80;;;;;;;13.37;99.70;97129.33;109800;1286;22368;-86
2023/10/29 08:42:16;;;;;;;8.50;5.40;;;;;;;13.48;99.98;97128.70;109775;1275;23495;-88
2023/10/29 08:44:44;;;;;;;5.40;4.00;;;;;;;13.62;99.89;97133.63;109756;1280;22194;-89
2023/10/29 08:47:12;;;;;;;7.20;4.50;;;;;;;13.75;99.98;97134.42;109771;1283;22312;-89
2023/10/29 08:49:40;;;;;;;6.50;4.40;;;;;;;13.88;99.62;97132.84;109746;1286;22177;-89
2023/10/29 08:52:08;;;;;;;8.10;4.70;;;;;;;13.99;99.63;97132.73;109768;1286;22109;-88
2023/10/29 08:54:36;;;;;;;6.60;4.80;;;;;;;14.10;97.99;97130.14;109783;1286;22910;-87
2023/10/29 08:57:06;;;;;;;5.70;4.50;;;;;;;14.20;98.92;97125.25;109815;1277;22278;-87
2023/10/29 08:59:34;;;;;;;9.00;4.10;;;;;;;14.32;98.75;97126.02;109809;1279;22980;-89
2023/10/29 09:02:02;;;;;;;7.20;4.90;;;;;;;14.42;98.40;97119.54;109829;1286;22164;-86
2023/10/29 09:04:32;;;;;;;7.40;4.50;;;;;;;14.54;98.62;97125.88;109782;1286;22118;-86
2023/10/29 09:06:59;;;;;;;7.20;4.40;;;;;;;14.66;98.43;97127.86;109795;1286;22925;-87
2023/10/29 09:09:27;;;;;;;6.40;4.40;;;;;;;14.81;98.30;97129.59;109794;1286;22234;-86
2023/10/29 09:11:56;;;;;;;6.40;4.60;;;;;;;14.92;98.17;97132.24;109776;1286;22234;-86
2023/10/29 09:14:24;;;;;;;7.10;4.10;;;;;;;15.03;97.53;97127.41;109780;1281;22327;-86
2023/10/29 09:16:56;;;;;;;6.70;4.20;;;;;;;15.10;96.59;97127.75;109790;1286;22217;-86
2023/10/29 09:19:27;;;;;;;7.70;4.50;;;;;;;15.18;97.10;97129.45;109741;1286;22400;-85
2023/10/29 09:21:55;;;;;;;6.60;4.30;;;;;;;15.30;96.76;97125.50;109764;1277;22292;-86
2023/10/29 09:24:25;;;;;;;8.50;3.70;;;;;;;15.40;95.54;97124.20;109747;1284;22268;-86
2023/10/29 09:26:56;;;;;;;4.40;2.70;;;;;;;15.48;95.59;97116.64;109673;1287;22239;-86
2023/10/29 09:29:25;;;;;;;4.80;3.00;;;;;;;15.57;95.79;97117.65;109754;1286;22901;-86
2023/10/29 09:31:53;;;;;;;6.00;3.00;;;;;;;15.68;95.84;97114.65;109726;1285;23104;-84
2023/10/29 09:34:21;;;;;;;4.90;2.30;;;;;;;15.80;94.93;97115.51;109734;1276;22115;-87
2023/10/29 09:36:49;;;;;;;6.10;3.50;;;;;;;15.92;94.84;97118.66;109734;1286;22217;-85
2023/10/29 09:39:17;;;;;;;4.70;2.80;;;;;;;16.03;93.91;97116.13;109756;1283;22910;-86
2023/10/29 09:41:46;;;;;;;5.60;3.30;;;;;;;16.15;94.15;97111.83;109754;1286;22197;-85
2023/10/29 09:44:18;;;;;;;4.20;2.60;;;;;;;16.27;93.07;97114.57;109677;1286;22368;-85
2023/10/29 09:46:52;;;;;;;5.30;3.20;;;;;;;16.40;93.14;97109.48;109580;1281;195982;-86
2023/10/29 09:49:20;;;;;;;6.00;3.20;;;;;;;16.54;93.35;97105.44;109705;1286;23140;-86
2023/10/29 09:51:48;;;;;;;7.10;3.00;;;;;;;16.67;90.57;97104.45;109726;1286;22303;-86
2023/10/29 09:54:16;;;;;;;7.80;2.90;;;;;;;16.71;90.63;97101.20;109717;1287;22178;-87
2023/10/29 09:56:49;;;;;;;5.80;3.40;;;;;;;16.80;90.81;97096.73;109737;1286;22117;-87
2023/10/29 09:59:43;;;;;;;5.70;3.10;;;;;;;16.90;90.79;97094.52;109787;1286;22138;-86
2023/10/29 10:02:13;;;;;;;5.60;3.10;;;;;;;17.00;88.99;97085.31;109717;1282;22077;-86
2023/10/29 10:04:43;;;;;;;5.70;3.20;;;;;;;17.05;87.92;97085.02;109692;1280;22707;-84
2023/10/29 10:07:13;;;;;;;4.90;2.70;;;;;;;17.14;88.13;97084.86;109716;1286;22174;-84
2023/10/29 10:09:54;;;;;;;4.80;3.20;;;;;;;17.23;86.35;97083.71;109743;1282;22361;-85
2023/10/29 10:12:24;;;;;;;5.20;2.70;;;;;;;17.34;86.86;97081.31;109673;1277;22226;-81
2023/10/29 10:15:03;;;;;;;4.60;3.00;;;;;;;17.53;86.11;97077.36;109697;1286;22295;-80
2023/10/29 10:17:31;;;;;;;5.80;2.90;;;;;;;17.71;85.99;97071.12;109703;1276;23020;-81
2023/10/29 10:20:11;;;;;;;5.40;2.80;;;;;;;17.84;86.01;97066.36;109679;1280;22127;-81
2023/10/29 10:22:39;;;;;;;6.80;2.70;;;;;;;18.02;86.89;97065.92;109690;1281;22286;-82
2023/10/29 10:25:16;;;;;;;8.80;3.20;;;;;;;18.19;86.48;97067.17;109696;1286;22282;-82
2023/10/29 10:27:49;;;;;;;8.80;7.50;;;;;;;18.33;84.74;97059.10;109651;1281;22166;-82
2023/10/29 10:30:30;;;;;;;14.20;3.90;;;;;;;18.45;83.80;97054.48;109727;1288;22255;-84
2023/10/29 10:33:12;;;;;;;9.70;3.30;;;;;;;18.49;81.62;97054.55;109714;1273;22840;-84
2023/10/29 10:35:42;;;;;;;7.00;2.60;;;;;;;18.52;83.25;97058.56;109713;1288;22317;-84
2023/10/29 10:38:11;;;;;;;6.80;2.60;;;;;;;18.59;83.32;97061.06;109705;1287;22191;-83
2023/10/29 10:40:39;;;;;;;6.50;2.80;;;;;;;18.68;82.77;97058.05;109703;1287;22220;-84
2023/10/29 10:43:08;;;;;;;5.10;2.80;;;;;;;18.71;78.38;97056.83;109719;1287;22281;-84
2023/10/29 10:45:36;;;;;;;6.70;2.70;;;;;;;18.58;78.96;97053.11;109701;1286;22258;-82
2023/10/29 10:48:05;;;;;;;4.60;2.50;;;;;;;18.56;78.42;97054.47;109701;1288;22299;-81
2023/10/29 10:50:34;;;;;;;4.60;2.50;;;;;;;18.58;79.18;97045.61;109690;1287;24529;-85
2023/10/29 10:53:03;;;;;;;4.00;2.40;;;;;;;18.64;76.88;97047.09;109688;1287;22220;-85
2023/10/29 10:55:31;;;;;;;4.40;2.50;;;;;;;18.65;76.33;97046.55;109640;1285;22180;-89
2023/10/29 10:58:04;;;;;;;5.10;2.30;;;;;;;18.65;73.20;97046.00;109715;1287;22870;-87
2023/10/29 11:00:32;;;;;;;7.20;2.80;;;;;;;18.68;71.75;97044.09;109689;1283;22217;-87
2023/10/29 11:03:03;;;;;;;7.20;2.50;;;;;;;18.95;74.51;97047.84;109729;1284;22257;-83
2023/10/29 11:05:49;;;;;;;4.90;3.00;;;;;;;19.49;76.47;97046.23;109622;1288;23054;-87
2023/10/29 11:08:18;;;;;;;5.10;2.70;;;;;;;19.89;75.70;97041.80;109716;1287;22232;-87
2023/10/29 11:10:46;;;;;;;4.00;2.50;;;;;;;20.15;74.65;97039.92;109753;1287;22981;-88
2023/10/29 11:13:20;;;;;;;4.60;2.80;;;;;;;20.35;75.64;97036.90;109752;1286;22267;-88
2023/10/29 11:15:49;;;;;;;6.80;3.00;;;;;;;20.55;74.39;97035.29;109743;1276;22410;-89
2023/10/29 11:18:28;;;;;;;5.30;2.50;;;;;;;20.69;72.43;97034.95;109709;1283;22221;-87
2023/10/29 11:20:59;;;;;;;6.90;3.10;;;;;;;20.61;69.91;97033.98;109760;1288;23365;-88
2023/10/29 11:23:29;;;;;;;4.20;2.60;;;;;;;20.52;70.99;97026.52;109803;1288;22237;-87
2023/10/29 11:26:23;;;;;;;5.70;2.80;;;;;;;20.49;69.17;97020.08;109855;1288;22144;-88
2023/10/29 11:28:55;;;;;;;;;;;;;;;20.47;70.28;97016.40;109765;1288;22373;-86
2023/10/29 11:31:25;;;;;;;6.40;2.40;;;;;;;20.60;69.64;97012.72;109797;1286;22629;-88
2023/10/29 11:34:33;;;;;;;5.00;2.30;;;;;;;20.67;68.46;97013.91;109693;1279;22238;-88
2023/10/29 11:37:39;;;;;;;4.40;2.40;;;;;;;20.68;67.42;97012.90;109763;1286;22199;-89